John D. Leitch — VGWM — position and weather

sailwx.info

Track history (hours):
 
Tides and Currents Weather Stations Pressure Air Temp Water Temp Dewpoint Dewpoint Depression Visibility Wind Speed Wind Dir Waves Ship Positions

John D. Leitch

ex Canadian Century

Last reported at 2017-Nov-14 12:18 UTC. Time now 2017-Nov-21 06:12 UTC.
Position N 45°46' W 085°54'.

Length 222 m; draft 8.1 m.

Type: Cargo ship. MMSI: 316001701.

Date/timePositionNaut miles runAvg speedWind from/ knotsBaromVisibWave heightAir tempDewpointWater temp
2017-Nov-14 12:18N 45°46' W 085°54'311.3
2017-Nov-14 12:00N 45°47' W 085°50'1311.2
2017-Nov-14 10:52N 45°54' W 085°33'411.2
2017-Nov-14 10:30N 45°53' W 085°28'611.3
2017-Nov-14 10:00N 45°53' W 085°20'611.4
2017-Nov-14 09:30N 45°52' W 085°12'611.6
2017-Nov-14 09:00N 45°51' W 085°03'611.6
2017-Nov-14 08:30N 45°50' W 084°55'611.6
2017-Nov-14 08:00N 45°49' W 084°47'711.2
2017-Nov-14 07:21N 45°46' W 084°37'411.5
2017-Nov-14 07:00N 45°44' W 084°32'611.2
2017-Nov-14 06:30N 45°42' W 084°25'1411.0
2017-Nov-14 05:12N 45°37' W 084°05'211.7
2017-Nov-14 05:00N 45°36' W 084°03'611.6
2017-Nov-14 04:30N 45°34' W 083°55'611.5
2017-Nov-14 04:00N 45°32' W 083°48'611.6
2017-Nov-14 03:31N 45°29' W 083°40'611.7
2017-Nov-14 03:00N 45°27' W 083°32'611.6
2017-Nov-14 02:30N 45°24' W 083°25'  
2017-Nov-10 14:03N 45°14' W 074°13'1 8.4
2017-Nov-10 13:54N 45°14' W 074°11'5 7.4
2017-Nov-10 13:15N 45°13' W 074°04'2 7.3
2017-Nov-10 13:00N 45°14' W 074°01'5 8.1
2017-Nov-10 12:20N 45°17' W 073°56'1 2.3
2017-Nov-10 12:00N 45°18' W 073°56'0 0.4
2017-Nov-10 11:30N 45°18' W 073°56'1 1.3
2017-Nov-10 11:00N 45°19' W 073°55'0 0.6
2017-Nov-10 10:30N 45°19' W 073°55'1 2.6
2017-Nov-10 10:00N 45°20' W 073°54'4 7.9
2017-Nov-10 09:30N 45°23' W 073°49'4 7.9
2017-Nov-10 09:00N 45°24' W 073°44'3 6.2
2017-Nov-10 08:30N 45°25' W 073°40'3 5.3
2017-Nov-10 08:00N 45°24' W 073°36'1 2.1
2017-Nov-10 07:18N 45°24' W 073°34'0 1.0
2017-Nov-10 07:00N 45°24' W 073°34'2 3.2
2017-Nov-10 06:25N 45°25' W 073°31'2 4.5
2017-Nov-10 05:55N 45°27' W 073°30'  
Track history (hours):
 
Tides and Currents Weather Stations Pressure Air Temp Water Temp Dewpoint Dewpoint Depression Visibility Wind Speed Wind Dir Waves Ship Positions

John D. Leitch

ex Canadian Century

Last reported at 2017-Nov-14 12:18 UTC. Time now 2017-Nov-21 06:12 UTC.
Position N 45°46' W 085°54'.

Length 222 m; draft 8.1 m.

Type: Cargo ship. MMSI: 316001701.

Date/timePositionNaut miles runAvg speedWind from/ knotsBaromVisibWave heightAir tempDewpointWater temp
2017-Nov-14 12:18N 45°46' W 085°54'311.3
2017-Nov-14 12:00N 45°47' W 085°50'1311.2
2017-Nov-14 10:52N 45°54' W 085°33'411.2
2017-Nov-14 10:30N 45°53' W 085°28'611.3
2017-Nov-14 10:00N 45°53' W 085°20'611.4
2017-Nov-14 09:30N 45°52' W 085°12'611.6
2017-Nov-14 09:00N 45°51' W 085°03'611.6
2017-Nov-14 08:30N 45°50' W 084°55'611.6
2017-Nov-14 08:00N 45°49' W 084°47'711.2
2017-Nov-14 07:21N 45°46' W 084°37'411.5
2017-Nov-14 07:00N 45°44' W 084°32'611.2
2017-Nov-14 06:30N 45°42' W 084°25'1411.0
2017-Nov-14 05:12N 45°37' W 084°05'211.7
2017-Nov-14 05:00N 45°36' W 084°03'611.6
2017-Nov-14 04:30N 45°34' W 083°55'611.5
2017-Nov-14 04:00N 45°32' W 083°48'611.6
2017-Nov-14 03:31N 45°29' W 083°40'611.7
2017-Nov-14 03:00N 45°27' W 083°32'611.6
2017-Nov-14 02:30N 45°24' W 083°25'  
2017-Nov-10 14:03N 45°14' W 074°13'1 8.4
2017-Nov-10 13:54N 45°14' W 074°11'5 7.4
2017-Nov-10 13:15N 45°13' W 074°04'2 7.3
2017-Nov-10 13:00N 45°14' W 074°01'5 8.1
2017-Nov-10 12:20N 45°17' W 073°56'1 2.3
2017-Nov-10 12:00N 45°18' W 073°56'0 0.4
2017-Nov-10 11:30N 45°18' W 073°56'1 1.3
2017-Nov-10 11:00N 45°19' W 073°55'0 0.6
2017-Nov-10 10:30N 45°19' W 073°55'1 2.6
2017-Nov-10 10:00N 45°20' W 073°54'4 7.9
2017-Nov-10 09:30N 45°23' W 073°49'4 7.9
2017-Nov-10 09:00N 45°24' W 073°44'3 6.2
2017-Nov-10 08:30N 45°25' W 073°40'3 5.3
2017-Nov-10 08:00N 45°24' W 073°36'1 2.1
2017-Nov-10 07:18N 45°24' W 073°34'0 1.0
2017-Nov-10 07:00N 45°24' W 073°34'2 3.2
2017-Nov-10 06:25N 45°25' W 073°31'2 4.5
2017-Nov-10 05:55N 45°27' W 073°30'  

Dump ship's entire track history